createdAt,value
2018-04-24T06:37:33.462Z,85
2018-04-24T06:38:23.505Z,34.1
2018-04-24T06:39:13.560Z,34.3
2018-04-24T06:40:03.065Z,34.4
2018-04-24T06:40:53.400Z,34.7
2018-04-24T06:41:43.757Z,34.8
2018-04-24T06:42:33.853Z,34.9
2018-04-24T06:43:23.877Z,35.1
2018-04-24T06:44:13.961Z,35.3
2018-04-24T06:45:04.034Z,35.3
2018-04-24T06:45:54.075Z,35.5
2018-04-24T06:46:43.871Z,35.6
2018-04-24T06:47:34.214Z,35.8
2018-04-24T06:48:24.370Z,35.9
2018-04-24T06:49:14.332Z,36.1
2018-04-24T06:50:04.125Z,36.3
2018-04-24T06:50:54.461Z,36.4
2018-04-24T06:51:44.251Z,36.6
2018-04-24T06:52:34.594Z,36.7
2018-04-24T06:53:24.710Z,36.8
2018-04-24T06:54:14.720Z,37
2018-04-24T06:55:05.029Z,37.1
2018-04-24T06:55:54.855Z,37.3
2018-04-24T06:56:44.641Z,37.4
2018-04-24T06:57:34.696Z,37.6
2018-04-24T06:58:25.054Z,37.8
2018-04-24T06:59:15.116Z,37.9
2018-04-24T07:00:05.176Z,38.1
2018-04-24T07:00:55.192Z,38.3
2018-04-24T07:01:45.296Z,38.4
2018-04-24T07:02:35.363Z,38.6
2018-04-24T07:03:25.513Z,38.8
2018-04-24T07:04:15.502Z,39
2018-04-24T07:05:05.551Z,39.3
2018-04-24T07:05:55.626Z,39.4
2018-04-24T07:06:45.701Z,39.6
2018-04-24T07:07:35.752Z,39.8
2018-04-24T07:08:25.818Z,40
2018-04-24T07:09:15.883Z,40.2
2018-04-24T07:10:05.950Z,40.3
2018-04-24T07:10:55.734Z,40.5
2018-04-24T07:11:46.079Z,40.7
2018-04-24T07:12:36.162Z,40.9
2018-04-24T07:13:26.204Z,41.1
2018-04-24T07:14:16.272Z,41.3
2018-04-24T07:15:06.330Z,41.4
2018-04-24T07:15:56.395Z,41.6
2018-04-24T07:16:46.354Z,41.8
2018-04-24T07:17:36.248Z,41.9
2018-04-24T07:18:26.612Z,42.1
2018-04-24T07:19:16.650Z,42.3
2018-04-24T07:20:06.740Z,42.6
2018-04-24T07:20:56.794Z,42.8
2018-04-24T07:21:46.855Z,43
2018-04-24T07:22:36.932Z,43.2
2018-04-24T07:23:26.711Z,43.4
2018-04-24T07:24:16.762Z,43.6
2018-04-24T07:25:07.117Z,43.8
2018-04-24T07:25:57.188Z,43.9
2018-04-24T07:26:47.245Z,44.1
2018-04-24T07:27:37.033Z,44.3
2018-04-24T07:28:27.092Z,44.4
2018-04-24T07:29:17.436Z,44.6
2018-04-24T07:30:07.507Z,44.8
2018-04-24T07:30:57.572Z,45
2018-04-24T07:31:47.687Z,45.2
2018-04-24T07:32:37.694Z,45.4
2018-04-24T07:33:27.477Z,45.5
2018-04-24T07:34:17.823Z,45.8
2018-04-24T07:35:07.910Z,45.9
2018-04-24T07:35:57.950Z,46.1
2018-04-24T07:36:47.745Z,46.3
2018-04-24T07:37:38.082Z,46.5
2018-04-24T07:38:28.286Z,46.7
2018-04-24T07:39:18.259Z,46.9
2018-04-24T07:40:08.275Z,47.1
2018-04-24T07:40:58.059Z,47.3
2018-04-24T07:41:48.138Z,47.4
2018-04-24T07:42:38.474Z,47.6
2018-04-24T07:43:28.538Z,47.8
2018-04-24T07:44:18.600Z,48
2018-04-24T07:45:08.664Z,48.2
2018-04-24T07:45:58.753Z,48.4
2018-04-24T07:46:48.944Z,48.6
2018-04-24T07:47:38.586Z,48.8
2018-04-24T07:48:28.646Z,48.9
2018-04-24T07:49:18.989Z,49.1
2018-04-24T07:50:09.065Z,49.3
2018-04-24T07:50:59.144Z,49.5
2018-04-24T07:51:49.190Z,49.7
2018-04-24T07:52:39.259Z,49.9
2018-04-24T07:53:29.328Z,50.1
2018-04-24T07:54:19.101Z,50.3
2018-04-24T07:55:09.173Z,50.4
2018-04-24T07:55:59.511Z,50.6
2018-04-24T07:56:49.587Z,50.8
2018-04-24T07:57:39.662Z,51
2018-04-24T07:58:29.757Z,51.2
2018-04-24T07:59:19.904Z,51.4
2018-04-24T08:00:09.850Z,51.6
2018-04-24T08:00:59.925Z,51.8
2018-04-24T08:01:49.991Z,52
2018-04-24T08:02:40.074Z,52.2
2018-04-24T08:04:19.896Z,52.6
2018-04-24T08:05:10.235Z,52.8
2018-04-24T08:06:00.318Z,52.9
2018-04-24T08:06:50.363Z,53.1
2018-04-24T08:07:40.443Z,53.3
2018-04-24T08:08:30.222Z,53.5
2018-04-24T08:09:20.563Z,53.7
2018-04-24T08:10:10.630Z,53.9
2018-04-24T08:11:00.416Z,54.1
2018-04-24T08:11:50.485Z,54.3
2018-04-24T08:12:40.822Z,54.4
2018-04-24T08:13:30.612Z,54.6
2018-04-24T08:14:20.949Z,54.8
2018-04-24T08:15:10.735Z,54.9
2018-04-24T08:16:00.807Z,55.1
2018-04-24T08:16:51.150Z,55.3
2018-04-24T08:17:41.230Z,55.4
2018-04-24T08:18:31.276Z,55.6
2018-04-24T08:19:21.342Z,55.8
2018-04-24T08:20:11.398Z,55.9
2018-04-24T08:21:01.475Z,56.1
2018-04-24T08:21:51.543Z,56.3
2018-04-24T08:22:41.610Z,56.5
2018-04-24T08:23:31.664Z,56.7
2018-04-24T08:24:21.734Z,56.8
2018-04-24T08:25:11.794Z,57.1
2018-04-24T08:26:01.880Z,57.3
2018-04-24T08:26:51.947Z,57.4
2018-04-24T08:27:42.061Z,57.6
2018-04-24T08:29:22.123Z,57.9
2018-04-24T08:30:12.208Z,58.1
2018-04-24T08:31:02.261Z,58.3
2018-04-24T08:31:52.325Z,58.4
2018-04-24T08:32:42.384Z,58.6
2018-04-24T08:33:32.180Z,58.8
2018-04-24T08:34:22.528Z,58.9
2018-04-24T08:35:12.595Z,59.1
2018-04-24T08:36:02.652Z,59.3
2018-04-24T08:36:52.718Z,59.4
2018-04-24T08:37:42.810Z,59.6
2018-04-24T08:38:32.569Z,59.8
2018-04-24T08:39:22.915Z,59.9
2018-04-24T08:40:12.692Z,60.1
2018-04-24T08:41:03.036Z,60.3
2018-04-24T08:41:53.094Z,60.4
2018-04-24T08:42:43.198Z,60.6
2018-04-24T08:43:33.253Z,60.8
2018-04-24T08:44:23.309Z,60.9
2018-04-24T08:45:13.367Z,61.1
2018-04-24T08:46:03.443Z,61.2
2018-04-24T08:46:53.503Z,61.4
2018-04-24T08:47:43.558Z,61.6
2018-04-24T08:48:33.639Z,61.8
2018-04-24T08:49:23.709Z,61.9
2018-04-24T08:50:13.764Z,62.1
2018-04-24T08:51:03.833Z,62.2
2018-04-24T08:51:53.612Z,62.4
2018-04-24T08:52:43.960Z,62.5
2018-04-24T08:53:34.028Z,62.7
2018-04-24T08:54:24.105Z,62.8
2018-04-24T08:55:14.228Z,63
2018-04-24T08:56:03.944Z,63.2
2018-04-24T08:56:54.287Z,63.3
2018-04-24T08:57:44.351Z,63.5
2018-04-24T08:58:34.411Z,63.6
2018-04-24T08:59:24.485Z,63.8
2018-04-24T09:00:14.552Z,63.9
2018-04-24T09:01:04.335Z,64.1
2018-04-24T09:01:54.427Z,64.2
2018-04-24T09:02:44.751Z,64.3
2018-04-24T09:03:34.534Z,64.4
2018-04-24T09:04:24.891Z,64.6
2018-04-24T09:05:14.656Z,64.7
2018-04-24T09:06:05.106Z,64.9
2018-04-24T09:06:55.070Z,65.1
2018-04-24T09:07:44.857Z,65.2
2018-04-24T09:08:35.342Z,65.3
2018-04-24T09:09:25.269Z,65.5
2018-04-24T09:10:15.337Z,65.6
2018-04-24T09:11:05.400Z,65.8
2018-04-24T09:11:55.470Z,65.9
2018-04-24T09:12:45.553Z,66
2018-04-24T09:13:35.629Z,66.2
2018-04-24T09:14:25.404Z,66.3
2018-04-24T09:15:15.728Z,66.4
2018-04-24T09:16:05.794Z,66.6
2018-04-24T09:16:55.859Z,66.8
2018-04-24T09:17:45.940Z,66.9
2018-04-24T09:18:35.716Z,67.1
2018-04-24T09:19:26.128Z,67.1
2018-04-24T09:20:16.123Z,67.3
2018-04-24T09:21:06.190Z,67.4
2018-04-24T09:21:56.277Z,67.6
2018-04-24T09:22:46.042Z,67.7
2018-04-24T09:23:36.378Z,67.8
2018-04-24T09:24:26.167Z,67.9
2018-04-24T09:25:16.534Z,68.1
2018-04-24T09:26:06.589Z,68.2
2018-04-24T09:26:56.854Z,68.3
2018-04-24T09:27:46.722Z,68.4
2018-04-24T09:28:36.791Z,68.4
2018-04-24T09:29:26.858Z,68.6
2018-04-24T09:30:16.910Z,68.7
2018-04-24T09:31:06.991Z,68.8
2018-04-24T09:31:57.054Z,68.9
2018-04-24T09:32:47.102Z,69
2018-04-24T09:33:37.512Z,69.1
2018-04-24T09:34:27.245Z,69.3
2018-04-24T09:35:17.305Z,69.3
2018-04-24T09:36:07.382Z,69.4
2018-04-24T09:36:57.444Z,69.6
2018-04-24T09:37:47.502Z,69.7
2018-04-24T09:38:37.570Z,69.8
2018-04-24T09:39:27.653Z,69.8
2018-04-24T09:40:17.413Z,69.9
2018-04-24T09:41:07.760Z,70
2018-04-24T09:41:57.849Z,70.2
2018-04-24T09:42:47.970Z,70.3
2018-04-24T09:43:37.967Z,70.4
2018-04-24T09:44:27.767Z,70.4
2018-04-24T09:45:18.105Z,70.4
2018-04-24T09:46:08.165Z,70.6
2018-04-24T09:46:58.221Z,70.6
2018-04-24T09:47:48.297Z,70.7
2018-04-24T09:48:38.359Z,70.9
2018-04-24T09:49:28.662Z,71
2018-04-24T09:50:18.504Z,71.1
2018-04-24T09:51:08.284Z,71.1
2018-04-24T09:51:58.615Z,71.2
2018-04-24T09:52:48.693Z,71.3
2018-04-24T09:53:38.467Z,71.4
2018-04-24T09:54:28.830Z,71.6
2018-04-24T09:55:18.904Z,71.6
2018-04-24T09:56:08.946Z,71.7
2018-04-24T09:56:59.011Z,71.8
2018-04-24T09:57:49.094Z,71.9
2018-04-24T09:58:53.525Z,71.9
2018-04-24T09:59:28.926Z,72
2018-04-24T10:00:19.313Z,72.1
2018-04-24T10:01:09.354Z,72.1
2018-04-24T10:01:59.406Z,72.2
2018-04-24T10:02:49.476Z,72.3
2018-04-24T10:03:39.530Z,72.4
2018-04-24T10:04:29.600Z,72.5
2018-04-24T10:05:19.395Z,72.5
2018-04-24T10:06:09.734Z,72.6
2018-04-24T10:06:59.521Z,72.8
2018-04-24T10:07:50.048Z,72.9
2018-04-24T10:08:39.647Z,72.9
2018-04-24T10:09:30.000Z,73
2018-04-24T10:10:20.062Z,73.1
2018-04-24T10:11:09.857Z,73.2
2018-04-24T10:12:00.196Z,73.3
2018-04-24T10:12:50.283Z,73.4
2018-04-24T10:13:40.680Z,73.4
2018-04-24T10:14:30.409Z,73.5
2018-04-24T10:15:20.458Z,73.6
2018-04-24T10:16:10.527Z,73.7
2018-04-24T10:17:00.615Z,73.8
2018-04-24T10:17:50.387Z,73.8
2018-04-24T10:18:40.715Z,73.9
2018-04-24T10:19:30.539Z,74
2018-04-24T10:20:20.857Z,74.1
2018-04-24T10:21:10.932Z,74.2
2018-04-24T10:22:00.995Z,74.3
2018-04-24T10:22:50.779Z,74.3
2018-04-24T10:23:41.119Z,74.4
2018-04-24T10:24:31.180Z,74.5
2018-04-24T10:25:20.965Z,74.6
2018-04-24T10:26:11.312Z,74.6
2018-04-24T10:27:01.376Z,74.7
2018-04-24T10:27:51.456Z,74.8
2018-04-24T10:28:41.517Z,74.9
2018-04-24T10:29:31.311Z,74.9
2018-04-24T10:30:21.365Z,75
2018-04-24T10:31:11.717Z,75.1
2018-04-24T10:32:01.802Z,75.2
2018-04-24T10:32:51.842Z,75.3
2018-04-24T10:33:41.920Z,75.4
2018-04-24T10:34:31.704Z,75.4
2018-04-24T10:35:22.043Z,75.5
2018-04-24T10:36:11.824Z,75.6
2018-04-24T10:37:02.177Z,75.7
2018-04-24T10:37:52.247Z,75.7
2018-04-24T10:38:42.310Z,75.7
2018-04-24T10:39:32.091Z,75.8
2018-04-24T10:40:22.157Z,76.1
2018-04-24T10:41:12.501Z,76
2018-04-24T10:42:02.583Z,74.4
2018-04-24T10:42:52.354Z,74.4
2018-04-24T10:43:42.758Z,75.4
2018-04-24T10:44:32.768Z,76.7
2018-04-24T10:45:22.834Z,76.9
2018-04-24T10:46:12.907Z,76.7
2018-04-24T10:47:02.703Z,76.4
2018-04-24T10:47:52.760Z,76.3
2018-04-24T10:48:43.100Z,76.4
2018-04-24T10:49:33.178Z,76.6
2018-04-24T10:50:22.968Z,76.7
2018-04-24T10:51:13.027Z,76.7
2018-04-24T10:52:03.366Z,76.8
2018-04-24T10:52:53.436Z,76.8
2018-04-24T10:53:43.491Z,76.9
2018-04-24T10:54:33.574Z,76.9
2018-04-24T10:55:23.643Z,77
2018-04-24T10:56:13.696Z,77.1
2018-04-24T10:57:03.761Z,77.1
2018-04-24T10:57:53.841Z,77.2
2018-04-24T10:58:43.884Z,77.3
2018-04-24T10:59:33.951Z,77.3
2018-04-24T11:00:24.016Z,77.4
2018-04-24T11:01:14.085Z,77.4
2018-04-24T11:02:04.169Z,77.4
2018-04-24T11:02:54.216Z,77.5
2018-04-24T11:03:44.291Z,77.6
2018-04-24T11:04:34.346Z,77.6
2018-04-24T11:05:24.415Z,77.7
2018-04-24T11:06:14.494Z,77.8
2018-04-24T11:07:04.563Z,77.8
2018-04-24T11:07:54.619Z,77.9
2018-04-24T11:08:44.421Z,77.9
2018-04-24T11:09:34.771Z,78
2018-04-24T11:10:24.530Z,78.1
2018-04-24T11:11:14.894Z,78.1
2018-04-24T11:12:04.958Z,78.2
2018-04-24T11:12:54.745Z,78.3
2018-04-24T11:13:45.074Z,78.3
2018-04-24T11:14:35.150Z,78.4
2018-04-24T11:15:25.202Z,78.4
2018-04-24T11:16:15.278Z,78.5
2018-04-24T11:17:05.418Z,78.6
2018-04-24T11:17:55.406Z,78.6
2018-04-24T11:18:45.468Z,78.6
2018-04-24T11:19:35.533Z,78.8
2018-04-24T11:20:25.606Z,78.8
2018-04-24T11:21:15.408Z,78.9
2018-04-24T11:22:05.736Z,78.9
2018-04-24T11:22:55.800Z,78.9
2018-04-24T11:23:45.871Z,78.9
2018-04-24T11:24:35.660Z,79
2018-04-24T11:25:26.005Z,79.1
2018-04-24T11:26:15.785Z,79.1
2018-04-24T11:27:05.902Z,79.1
2018-04-24T11:27:56.200Z,79.3
2018-04-24T11:28:45.989Z,79.3
2018-04-24T11:29:36.342Z,79.4
2018-04-24T11:30:26.500Z,79.4
2018-04-24T11:31:16.187Z,79.4
2018-04-24T11:32:06.553Z,79.5
2018-04-24T11:32:56.611Z,79.6
2018-04-24T11:33:46.673Z,79.6
2018-04-24T11:34:36.735Z,79.6
2018-04-24T11:35:26.516Z,79.7
2018-04-24T11:36:16.597Z,79.8
2018-04-24T11:37:06.936Z,79.8
2018-04-24T11:37:56.997Z,79.8
2018-04-24T11:38:47.073Z,79.8
2018-04-24T11:39:37.133Z,79.8
2018-04-24T11:40:27.217Z,79.8
2018-04-24T11:41:17.380Z,79.9
2018-04-24T11:42:07.336Z,79.9
2018-04-24T11:42:57.416Z,79.9
2018-04-24T11:43:47.288Z,80
2018-04-24T11:44:37.531Z,80
2018-04-24T11:45:27.645Z,80.1
2018-04-24T11:46:17.391Z,80.1
2018-04-24T11:47:07.724Z,80.1
2018-04-24T11:48:47.859Z,80.3
2018-04-24T11:49:38.017Z,80.3
2018-04-24T11:50:28.001Z,80.3
2018-04-24T11:51:18.084Z,80.3
2018-04-24T11:52:08.120Z,80.3
2018-04-24T11:52:58.207Z,80.3
2018-04-24T11:53:48.254Z,80.4
2018-04-24T11:54:38.323Z,80.4
2018-04-24T11:55:28.399Z,80.4
2018-04-24T11:56:18.476Z,80.4
2018-04-24T11:57:08.784Z,80.5
2018-04-24T11:57:58.598Z,80.6
2018-04-24T11:58:48.655Z,80.6
2018-04-24T11:59:38.715Z,80.6
2018-04-24T12:00:28.785Z,80.6
2018-04-24T12:01:18.860Z,80.7
2018-04-24T12:02:08.922Z,80.8
2018-04-24T12:02:58.704Z,80.8
2018-04-24T12:03:49.053Z,80.8
2018-04-24T12:04:39.112Z,80.8
2018-04-24T12:05:29.198Z,80.8
2018-04-24T12:06:19.327Z,80.8
2018-04-24T12:07:09.338Z,80.9
2018-04-24T12:07:59.382Z,80.9
2018-04-24T12:08:49.447Z,80.9
2018-04-24T12:09:39.510Z,80.9
2018-04-24T12:10:29.308Z,80.9
2018-04-24T12:11:19.652Z,80.9
2018-04-24T12:12:09.715Z,80.9
2018-04-24T12:12:59.803Z,81
2018-04-24T12:13:49.847Z,81
2018-04-24T12:14:39.924Z,81
2018-04-24T12:15:29.982Z,81
2018-04-24T12:16:20.044Z,81
2018-04-24T12:17:10.141Z,81
2018-04-24T12:17:59.901Z,81.1
2018-04-24T12:18:50.240Z,81.1
2018-04-24T12:19:40.313Z,81.1
2018-04-24T12:20:30.398Z,81.1
2018-04-24T12:21:20.446Z,81.2
2018-04-24T12:22:10.529Z,81.2
2018-04-24T12:23:00.656Z,81.2
2018-04-24T12:23:50.640Z,81.3
2018-04-24T12:24:40.436Z,81.3
2018-04-24T12:25:30.768Z,81.3
2018-04-24T12:26:20.843Z,81.3
2018-04-24T12:27:10.911Z,81.3
2018-04-24T12:28:00.700Z,81.3
2018-04-24T12:28:51.060Z,81.3
2018-04-24T12:29:40.632Z,81.3
2018-04-24T12:30:31.444Z,81.4
2018-04-24T12:31:21.235Z,81.4
2018-04-24T12:32:11.308Z,81.4
2018-04-24T12:33:01.099Z,81.4
2018-04-24T12:33:51.439Z,81.3
2018-04-24T12:34:41.504Z,81.4
2018-04-24T12:35:31.293Z,81.4
2018-04-24T12:36:21.418Z,81.4
2018-04-24T12:37:11.694Z,81.4
2018-04-24T12:38:01.779Z,81.4
2018-04-24T12:38:51.976Z,81.4
2018-04-24T12:39:41.899Z,81.4
2018-04-24T12:40:31.973Z,81.4
2018-04-24T12:41:22.034Z,81.4
2018-04-24T12:42:12.091Z,81.4
2018-04-24T12:43:02.161Z,81.4
2018-04-24T12:43:51.963Z,81.4
2018-04-24T12:44:42.007Z,81.4
2018-04-24T12:45:32.360Z,81.4
2018-04-24T12:46:22.420Z,81.4
2018-04-24T12:47:12.485Z,81.4
2018-04-24T12:48:02.555Z,81.4
2018-04-24T12:48:52.351Z,81.4
2018-04-24T12:49:42.689Z,81.4
2018-04-24T12:50:32.779Z,81.4
2018-04-24T12:51:22.913Z,81.4
2018-04-24T12:52:12.890Z,81.4
2018-04-24T12:53:02.952Z,81.4
2018-04-24T12:53:52.752Z,81.3
2018-04-24T12:54:43.091Z,81.4
2018-04-24T12:55:33.149Z,81.3
2018-04-24T12:56:22.947Z,81.3
2018-04-24T12:57:13.284Z,81.3
2018-04-24T12:58:03.345Z,81.3
2018-04-24T12:58:53.423Z,81.3
2018-04-24T12:59:43.204Z,81.3
2018-04-24T13:00:33.267Z,81.2
2018-04-24T13:01:23.607Z,81.2
2018-04-24T13:02:13.704Z,81.2
2018-04-24T13:03:03.464Z,81.1
2018-04-24T13:03:53.567Z,81.1
2018-04-24T13:04:43.656Z,81.1
2018-04-24T13:05:33.958Z,81
2018-04-24T13:06:23.721Z,80.9
2018-04-24T13:07:14.093Z,80.9
2018-04-24T13:08:03.869Z,80.9
2018-04-24T13:08:53.931Z,80.9
2018-04-24T13:09:44.525Z,80.9
2018-04-24T13:10:34.331Z,80.9
2018-04-24T13:11:24.417Z,80.9
2018-04-24T13:12:14.467Z,80.9
2018-04-24T13:13:04.536Z,80.9
2018-04-24T13:13:54.604Z,80.9
2018-04-24T13:14:44.388Z,80.9
2018-04-24T13:15:34.749Z,80.9
2018-04-24T13:16:24.518Z,80.9
2018-04-24T13:17:14.301Z,80.9
2018-04-24T13:18:04.669Z,80.8
2018-04-24T13:18:55.000Z,80.8
2018-04-24T13:19:45.077Z,80.8
2018-04-24T13:20:34.851Z,80.8
2018-04-24T13:21:25.222Z,80.8
2018-04-24T13:22:15.282Z,80.7
2018-04-24T13:23:05.051Z,80.6
2018-04-24T13:23:55.392Z,80.6
2018-04-24T13:24:45.174Z,80.4
2018-04-24T13:25:35.269Z,80.1
2018-04-24T13:26:25.590Z,79.9
2018-04-24T13:27:15.666Z,79.9
2018-04-24T13:28:05.731Z,79.9
2018-04-24T13:28:55.508Z,80
2018-04-24T13:29:45.862Z,80
2018-04-24T13:30:35.926Z,79.9
2018-04-24T13:31:25.992Z,79.9
2018-04-24T13:32:16.048Z,79.8
2018-04-24T13:33:05.848Z,79.8
2018-04-24T13:33:56.172Z,79.8
2018-04-24T13:34:46.244Z,79.8
2018-04-24T13:35:36.336Z,79.7
2018-04-24T13:36:26.096Z,79.6
2018-04-24T13:37:16.606Z,79.6
2018-04-24T13:38:06.238Z,79.5
2018-04-24T13:38:56.300Z,79.4
2018-04-24T13:39:46.361Z,79.4
2018-04-24T13:40:36.429Z,79.3
2018-04-24T13:41:26.775Z,79.3
2018-04-24T13:42:16.836Z,79.1
2018-04-24T13:43:07.043Z,78.9
2018-04-24T13:43:56.691Z,78.6
2018-04-24T13:44:47.038Z,78.4
2018-04-24T13:45:37.114Z,78.1
2018-04-24T13:46:27.173Z,77.9
2018-04-24T13:47:17.233Z,77.7
2018-04-24T13:48:07.288Z,76.7
2018-04-24T13:48:57.620Z,75.1
2018-04-24T13:49:47.434Z,74.7
2018-04-24T13:50:37.507Z,74.3
2018-04-24T13:51:27.571Z,73.8
2018-04-24T13:52:17.627Z,73.5
2018-04-24T13:53:07.423Z,73.1
2018-04-24T13:53:57.771Z,74.4
2018-04-24T13:54:47.819Z,75.6
2018-04-24T13:55:37.886Z,75.9
2018-04-24T13:56:27.955Z,75.9
2018-04-24T13:57:18.012Z,75.8
2018-04-24T13:58:07.799Z,75.9
2018-04-24T13:58:58.164Z,75.3
2018-04-24T13:59:48.210Z,75.8
2018-04-24T14:00:38.282Z,75.9
2018-04-24T14:01:28.349Z,75.8
2018-04-24T14:02:18.409Z,75.8
2018-04-24T14:03:08.472Z,74.6
2018-04-24T14:03:58.540Z,75.7
2018-04-24T14:04:48.604Z,75.7
2018-04-24T14:05:38.405Z,75.5
2018-04-24T14:06:28.994Z,75.2
2018-04-24T14:07:18.800Z,74.1
2018-04-24T14:08:08.601Z,75.1
2018-04-24T14:08:58.956Z,75
2018-04-24T14:09:48.725Z,75
2018-04-24T14:10:39.072Z,74.9
2018-04-24T14:11:29.144Z,74.8
2018-04-24T14:12:19.141Z,74.8
2018-04-24T14:13:09.262Z,74.8
2018-04-24T14:13:59.342Z,74.7
2018-04-24T14:14:49.111Z,74.6
2018-04-24T14:15:39.470Z,74.5
2018-04-24T14:16:29.593Z,74.4
2018-04-24T14:17:19.594Z,73
2018-04-24T14:18:09.654Z,70.3
2018-04-24T14:18:59.451Z,68.9
2018-04-24T14:19:49.789Z,68.6
2018-04-24T14:20:39.866Z,68.7
2018-04-24T14:21:30.139Z,68.6
2018-04-24T14:22:19.984Z,68.5
2018-04-24T14:23:09.777Z,68.3
2018-04-24T14:24:00.119Z,68.2
2018-04-24T14:24:50.180Z,68.1
2018-04-24T14:25:40.245Z,68.1
2018-04-24T14:26:30.314Z,68
2018-04-24T14:27:20.371Z,67.9
2018-04-24T14:28:10.457Z,67.9
2018-04-24T14:29:00.516Z,67.8
2018-04-24T14:29:50.571Z,67.4
2018-04-24T14:30:40.639Z,66.1
2018-04-24T14:31:30.709Z,66.6
2018-04-24T14:32:20.771Z,66.3
2018-04-24T14:33:10.842Z,66.1
2018-04-24T14:34:00.618Z,66.1
2018-04-24T14:34:50.966Z,66.1
2018-04-24T14:35:41.042Z,66.2
2018-04-24T14:36:31.106Z,66.1
2018-04-24T14:37:21.175Z,66.1
2018-04-24T14:38:11.231Z,66.1
2018-04-24T14:39:01.310Z,66
2018-04-24T14:39:51.075Z,65.9
2018-04-24T14:40:41.414Z,65.9
2018-04-24T14:41:31.494Z,65.8
2018-04-24T14:42:21.553Z,65.7
2018-04-24T14:43:11.624Z,65.6
2018-04-24T14:44:01.682Z,65.5
2018-04-24T14:44:51.459Z,65.4
2018-04-24T14:45:41.832Z,65.3
2018-04-24T14:46:31.872Z,65.2
2018-04-24T14:47:22.017Z,65.1
2018-04-24T14:48:12.014Z,64.9
2018-04-24T14:49:02.072Z,64.9
2018-04-24T14:49:51.936Z,64.8
2018-04-24T14:50:42.229Z,64.3
2018-04-24T14:51:32.316Z,63.8
2018-04-24T14:52:22.327Z,64.9
2018-04-24T14:53:12.399Z,65
2018-04-24T14:54:02.461Z,64.9
2018-04-24T14:54:52.529Z,64.3
2018-04-24T14:55:42.593Z,63.5
2018-04-24T14:56:32.665Z,63.7
2018-04-24T14:57:22.731Z,63.6
2018-04-24T14:58:12.896Z,63.6
2018-04-24T14:59:02.568Z,62.8
2018-04-24T14:59:52.933Z,63.4
2018-04-24T15:00:42.421Z,63
2018-04-24T15:01:33.056Z,61.9
2018-04-24T15:02:22.840Z,61.6
2018-04-24T15:03:13.172Z,61.6
2018-04-24T15:04:03.256Z,61.6
2018-04-24T15:04:53.324Z,61.6
2018-04-24T15:05:43.097Z,61.4
2018-04-24T15:06:33.434Z,61.3
2018-04-24T15:07:23.222Z,61.3
2018-04-24T15:08:13.574Z,61.1
2018-04-24T15:09:03.632Z,61.1
2018-04-24T15:09:53.712Z,60.9
2018-04-24T15:10:43.482Z,60.8
2018-04-24T15:11:33.827Z,60.7
2018-04-24T15:12:23.887Z,60.6
2018-04-24T15:13:13.959Z,60.1
2018-04-24T15:14:04.096Z,59.9
2018-04-24T15:14:54.090Z,59.9
2018-04-24T15:15:44.166Z,60.8
2018-04-24T15:16:34.207Z,60.8
2018-04-24T15:17:24.290Z,60.6
2018-04-24T15:18:14.346Z,85
2018-04-24T15:19:04.495Z,59.3
2018-04-24T15:19:54.471Z,59.3
2018-04-24T15:20:44.269Z,59.2
2018-04-24T15:21:34.615Z,59.1
2018-04-24T15:22:24.390Z,59
2018-04-24T15:23:14.464Z,57.9
2018-04-24T15:24:04.798Z,57.6
2018-04-24T15:24:54.865Z,57.3
2018-04-24T15:25:44.930Z,57.1
2018-04-24T15:26:34.812Z,56.6
2018-04-24T15:27:24.778Z,55.9
2018-04-24T15:28:15.420Z,56.4
2018-04-24T15:29:05.195Z,57.2
2018-04-24T15:29:55.258Z,56.9
2018-04-24T15:30:45.035Z,56.6
2018-04-24T15:31:35.383Z,56.2
2018-04-24T15:32:25.439Z,55.3
2018-04-24T15:33:15.510Z,54.7
2018-04-24T15:34:05.322Z,54.2
2018-04-24T15:34:55.877Z,53.8
2018-04-24T15:35:45.438Z,53.3
2018-04-24T15:36:35.764Z,52.9
2018-04-24T15:37:25.833Z,52.6
2018-04-24T15:38:15.898Z,52.2
2018-04-24T15:39:05.966Z,51.8
2018-04-24T15:39:55.748Z,51.4
2018-04-24T15:40:46.097Z,50.9
2018-04-24T15:41:36.163Z,50.6
2018-04-24T15:42:25.944Z,50.1
2018-04-24T15:43:16.286Z,49.8
2018-04-24T15:44:06.343Z,49.4
2018-04-24T15:44:56.425Z,49
2018-04-24T15:45:46.483Z,48.7
2018-04-24T15:46:36.553Z,48.3
2018-04-24T15:47:26.611Z,48
2018-04-24T15:48:16.673Z,47.8
2018-04-24T15:49:06.754Z,47.4
2018-04-24T15:49:56.801Z,47.1
2018-04-24T15:50:46.863Z,46.9
2018-04-24T15:51:36.654Z,46.6
2018-04-24T15:52:26.724Z,46.4
2018-04-24T15:53:17.080Z,50.5
2018-04-24T15:54:07.121Z,51.9
2018-04-24T15:54:57.081Z,51.1
2018-04-24T15:55:47.269Z,50
2018-04-24T15:56:37.324Z,49.2
2018-04-24T15:57:27.406Z,48.4
2018-04-24T15:58:17.456Z,47.9
2018-04-24T15:59:07.514Z,47.3
2018-04-24T15:59:57.596Z,46.9
2018-04-24T16:00:47.656Z,46.4
2018-04-24T16:01:37.771Z,46.1
2018-04-24T16:02:27.774Z,45.8
2018-04-24T16:03:17.568Z,45.4
2018-04-24T16:04:07.899Z,45.1
2018-04-24T16:04:57.967Z,44.8
2018-04-24T16:05:48.026Z,44.5
2018-04-24T16:06:38.179Z,44.3
2018-04-24T16:07:28.157Z,43.9
2018-04-24T16:08:18.217Z,43.7
2018-04-24T16:09:08.013Z,43.4
2018-04-24T16:09:58.350Z,43.2
2018-04-24T16:10:48.414Z,42.9
2018-04-24T16:11:38.482Z,42.6
2018-04-24T16:12:28.553Z,42.4
2018-04-24T16:13:18.344Z,42.1
2018-04-24T16:14:08.680Z,41.9
2018-04-24T16:14:58.757Z,41.6
2018-04-24T16:15:48.532Z,41.4
2018-04-24T16:16:38.879Z,41.1
2018-04-24T16:17:28.665Z,40.9
2018-04-24T16:18:19.000Z,40.6
2018-04-24T16:19:08.792Z,40.4
2018-04-24T16:19:59.132Z,40.1
2018-04-24T16:20:49.209Z,39.9
2018-04-24T16:21:39.267Z,39.7
2018-04-24T16:22:29.321Z,39.4
2018-04-24T16:23:19.129Z,39.2
2018-04-24T16:24:09.596Z,38.9
2018-04-24T16:24:59.515Z,38.7
2018-04-24T16:25:49.574Z,38.5
2018-04-24T16:26:39.643Z,38.3
2018-04-24T16:27:29.706Z,38
2018-04-24T16:28:19.772Z,37.8
2018-04-24T16:29:09.570Z,37.6
2018-04-24T16:30:00.032Z,37.4
2018-04-24T16:30:49.977Z,37.1
2018-04-24T16:31:40.032Z,36.9
2018-04-24T16:32:30.102Z,36.7
2018-04-24T16:33:19.895Z,36.5
2018-04-24T16:34:10.228Z,36.3
2018-04-24T16:35:00.293Z,36.1
2018-04-24T16:35:50.556Z,35.9
2018-04-24T16:36:40.429Z,35.7
2018-04-24T16:37:30.493Z,35.5
2018-04-24T16:38:20.575Z,35.3
2018-04-24T16:39:10.620Z,35.1
2018-04-24T16:40:00.679Z,34.9
2018-04-24T16:40:50.746Z,34.7
2018-04-24T16:41:40.817Z,34.5
2018-04-24T16:42:30.964Z,34.3
2018-04-24T16:43:20.652Z,34.1
2018-04-24T16:44:10.998Z,33.9
2018-04-24T16:45:01.090Z,33.8
2018-04-24T16:45:50.857Z,33.6
2018-04-24T16:46:41.207Z,33.4
2018-04-24T16:47:31.260Z,33.3
2018-04-24T16:48:21.324Z,33.1
2018-04-24T16:49:11.398Z,32.9
2018-04-24T16:50:01.478Z,32.8
2018-04-24T16:50:51.253Z,32.6
2018-04-24T16:51:41.594Z,32.4
2018-04-24T16:52:31.378Z,32.3
2018-04-24T16:53:21.715Z,32.2
2018-04-24T16:54:11.786Z,32
2018-04-24T16:55:01.844Z,31.8
2018-04-24T16:55:51.909Z,31.7
2018-04-24T16:56:41.983Z,31.6
2018-04-24T16:57:32.038Z,31.4
2018-04-24T16:58:22.099Z,31.2
2018-04-24T16:59:12.173Z,31.1
2018-04-24T17:00:02.231Z,30.9
2018-04-24T17:00:52.412Z,30.8
2018-04-24T17:01:42.363Z,30.6
2018-04-24T17:02:32.422Z,30.4
2018-04-24T17:03:22.494Z,30.3
2018-04-24T17:04:12.550Z,30.1
2018-04-24T17:05:02.615Z,29.9
2018-04-24T17:05:52.679Z,29.7
2018-04-24T17:06:42.745Z,29.5
2018-04-24T17:07:32.533Z,29.3
2018-04-24T17:08:22.888Z,29.1
2018-04-24T17:09:12.931Z,28.9
2018-04-24T17:10:03.092Z,28.7
2018-04-24T17:10:53.057Z,28.4
2018-04-24T17:11:42.849Z,28.2
2018-04-24T17:12:33.207Z,28
2018-04-24T17:13:23.257Z,27.8
2018-04-24T17:14:13.317Z,27.6
2018-04-24T17:15:03.380Z,27.3
2018-04-24T17:15:53.438Z,27.1
2018-04-24T17:16:43.524Z,26.8
2018-04-24T17:17:33.586Z,26.6
2018-04-24T17:18:23.639Z,26.4
2018-04-24T17:19:13.710Z,26.2
2018-04-24T17:20:03.663Z,25.9
2018-04-24T17:20:53.823Z,25.7
2018-04-24T17:21:43.898Z,25.5
2018-04-24T17:22:33.963Z,25.3
2018-04-24T17:23:24.019Z,25.1
2018-04-24T17:24:14.086Z,24.9
2018-04-24T17:25:04.148Z,24.8
2018-04-24T17:25:53.928Z,24.6
2018-04-24T17:26:44.285Z,24.4
2018-04-24T17:27:34.348Z,24.2
2018-04-24T17:28:24.430Z,24.1
2018-04-24T17:29:14.478Z,23.9
2018-04-24T17:30:04.551Z,23.7
2018-04-24T17:30:54.807Z,23.6
2018-04-24T17:31:44.666Z,23.4
2018-04-24T17:32:34.724Z,23.3
2018-04-24T17:33:24.787Z,23.1
2018-04-24T17:34:14.867Z,22.9
2018-04-24T17:35:04.938Z,22.8
2018-04-24T17:35:54.704Z,22.7
2018-04-24T17:36:44.758Z,22.6
2018-04-24T17:37:34.841Z,22.4
2018-04-24T17:38:25.189Z,22.3
2018-04-24T17:39:15.231Z,22.2
2018-04-24T17:40:05.301Z,22.1
2018-04-24T17:40:55.537Z,21.9
2018-04-24T17:41:45.445Z,21.8
2018-04-24T17:42:35.497Z,21.7
2018-04-24T17:43:25.557Z,21.6
2018-04-24T17:44:15.339Z,21.5
2018-04-24T17:45:05.696Z,21.4
2018-04-24T17:45:55.750Z,21.3
2018-04-24T17:46:45.833Z,21.2
2018-04-24T17:48:25.942Z,21
2018-04-24T17:49:15.447Z,20.9